createdAt,value
2018-11-10T00:00:18.014Z,0
2018-11-10T00:00:37.566Z,0
2018-11-10T00:00:57.129Z,0
2018-11-10T00:01:16.789Z,0
2018-11-10T00:01:36.665Z,0
2018-11-10T00:01:56.695Z,0
2018-11-10T00:02:16.645Z,0
2018-11-10T00:02:36.401Z,0
2018-11-10T00:02:56.067Z,0
2018-11-10T00:03:15.685Z,0
2018-11-10T00:03:35.292Z,0
2018-11-10T00:03:54.973Z,0
2018-11-10T00:04:14.530Z,0
2018-11-10T00:04:34.326Z,0
2018-11-10T00:04:54.049Z,0
2018-11-10T00:05:13.891Z,0
2018-11-10T00:05:34.460Z,0
2018-11-10T00:05:54.139Z,0
2018-11-10T00:06:13.990Z,0
2018-11-10T00:06:33.773Z,0
2018-11-10T00:06:53.341Z,0
2018-11-10T00:07:13.107Z,0
2018-11-10T00:07:32.831Z,0
2018-11-10T00:07:52.839Z,0
2018-11-10T00:08:12.956Z,0
2018-11-10T00:08:32.565Z,0
2018-11-10T00:08:52.198Z,0
2018-11-10T00:09:11.717Z,0
2018-11-10T00:09:32.753Z,0
2018-11-10T00:09:54.696Z,0
2018-11-10T00:10:15.844Z,0
2018-11-10T00:10:35.411Z,0
2018-11-10T00:10:54.930Z,0
2018-11-10T00:11:14.461Z,0
2018-11-10T00:11:33.980Z,0
2018-11-10T00:11:53.720Z,0
2018-11-10T00:12:13.245Z,0
2018-11-10T00:12:33.617Z,0
2018-11-10T00:12:55.778Z,0
2018-11-10T00:13:17.018Z,0
2018-11-10T00:13:38.343Z,0
2018-11-10T00:13:59.484Z,0
2018-11-10T00:14:19.641Z,0
2018-11-10T00:14:39.613Z,0
2018-11-10T00:14:59.518Z,0
2018-11-10T00:15:19.244Z,0
2018-11-10T00:15:38.842Z,0
2018-11-10T00:15:58.425Z,0
2018-11-10T00:16:18.614Z,0
2018-11-10T00:16:38.412Z,0
2018-11-10T00:16:58.012Z,0
2018-11-10T00:17:18.222Z,0
2018-11-10T00:17:38.077Z,0
2018-11-10T00:17:57.877Z,0
2018-11-10T00:18:17.499Z,0
2018-11-10T00:18:37.402Z,0
2018-11-10T00:18:57.435Z,0
2018-11-10T00:19:17.322Z,0
2018-11-10T00:19:37.720Z,0
2018-11-10T00:19:57.971Z,0
2018-11-10T00:20:17.949Z,0
2018-11-10T00:20:37.880Z,0
2018-11-10T00:20:57.575Z,0
2018-11-10T00:21:17.581Z,0
2018-11-10T00:21:37.408Z,0
2018-11-10T00:21:56.918Z,0
2018-11-10T00:22:16.923Z,0
2018-11-10T00:22:36.752Z,0
2018-11-10T00:22:56.590Z,0
2018-11-10T00:23:16.477Z,0
2018-11-10T00:23:36.498Z,0
2018-11-10T00:23:56.425Z,0
2018-11-10T00:24:16.382Z,0
2018-11-10T00:24:36.298Z,0
2018-11-10T00:24:56.075Z,0
2018-11-10T00:25:16.570Z,0
2018-11-10T00:25:36.589Z,0
2018-11-10T00:25:56.454Z,0
2018-11-10T00:26:16.213Z,0
2018-11-10T00:26:35.935Z,0
2018-11-10T00:26:55.623Z,0
2018-11-10T00:27:15.257Z,0
2018-11-10T00:27:35.255Z,0
2018-11-10T00:27:55.340Z,0
2018-11-10T00:28:15.306Z,0
2018-11-10T00:28:35.238Z,0
2018-11-10T00:28:55.088Z,0
2018-11-10T00:29:15.166Z,0
2018-11-10T00:29:35.259Z,0
2018-11-10T00:29:54.937Z,0
2018-11-10T00:30:14.759Z,0
2018-11-10T00:30:35.399Z,0
2018-11-10T00:30:55.249Z,0
2018-11-10T00:31:15.040Z,0
2018-11-10T00:31:34.841Z,0
2018-11-10T00:31:54.676Z,0
2018-11-10T00:32:14.936Z,0
2018-11-10T00:32:36.178Z,0
2018-11-10T00:32:56.157Z,0
2018-11-10T00:33:15.745Z,0
2018-11-10T00:33:35.654Z,0
2018-11-10T00:33:55.851Z,0
2018-11-10T00:34:15.518Z,0
2018-11-10T00:34:35.195Z,0
2018-11-10T00:34:55.416Z,0
2018-11-10T00:35:17.178Z,0
2018-11-10T00:35:39.629Z,0
2018-11-10T00:36:00.274Z,0
2018-11-10T00:36:19.860Z,0
2018-11-10T00:36:39.444Z,0
2018-11-10T00:36:58.993Z,0
2018-11-10T00:37:18.706Z,0
2018-11-10T00:37:38.214Z,0
2018-11-10T00:37:57.847Z,0
2018-11-10T00:38:17.552Z,0
2018-11-10T00:38:37.321Z,0
2018-11-10T00:39:02.376Z,0
2018-11-10T00:39:22.631Z,0
2018-11-10T00:39:44.259Z,0
2018-11-10T00:40:04.965Z,0
2018-11-10T00:40:24.603Z,0
2018-11-10T00:40:44.556Z,0
2018-11-10T00:41:04.410Z,0
2018-11-10T00:41:24.231Z,0
2018-11-10T00:41:43.983Z,0
2018-11-10T00:42:03.710Z,0
2018-11-10T00:42:23.514Z,0
2018-11-10T00:42:43.353Z,0
2018-11-10T00:43:03.321Z,0
2018-11-10T00:43:23.153Z,0
2018-11-10T00:43:43.171Z,0
2018-11-10T00:44:03.090Z,0
2018-11-10T00:44:23.624Z,0
2018-11-10T00:44:43.249Z,0
2018-11-10T00:45:03.100Z,0
2018-11-10T00:45:23.025Z,0
2018-11-10T00:45:42.787Z,0
2018-11-10T00:46:05.673Z,0
2018-11-10T00:46:31.113Z,0
2018-11-10T00:46:50.678Z,0
2018-11-10T00:47:10.795Z,0
2018-11-10T00:47:40.098Z,0
2018-11-10T00:48:01.452Z,0
2018-11-10T00:48:21.373Z,0
2018-11-10T00:48:44.620Z,0
2018-11-10T00:49:08.021Z,0
2018-11-10T00:49:30.667Z,0
2018-11-10T00:49:50.741Z,0
2018-11-10T00:50:10.875Z,0
2018-11-10T00:50:30.569Z,0
2018-11-10T00:50:50.584Z,0
2018-11-10T00:51:10.408Z,0
2018-11-10T00:51:30.279Z,0
2018-11-10T00:51:51.143Z,0
2018-11-10T00:52:10.918Z,0
2018-11-10T00:52:30.775Z,0
2018-11-10T00:52:50.347Z,0
2018-11-10T00:53:09.938Z,0
2018-11-10T00:53:30.568Z,0
2018-11-10T00:53:50.477Z,0
2018-11-10T00:54:10.400Z,0
2018-11-10T00:54:30.107Z,0
2018-11-10T00:54:49.840Z,0
2018-11-10T00:55:09.542Z,0
2018-11-10T00:55:29.330Z,0
2018-11-10T00:55:49.283Z,0
2018-11-10T00:56:08.977Z,0
2018-11-10T00:56:28.551Z,0
2018-11-10T00:56:48.179Z,0
2018-11-10T00:57:07.977Z,0
2018-11-10T00:57:27.781Z,0
2018-11-10T00:57:51.660Z,0
2018-11-10T00:58:11.779Z,0
2018-11-10T00:58:31.875Z,0
2018-11-10T00:58:52.557Z,0
2018-11-10T00:59:12.208Z,0
2018-11-10T00:59:31.966Z,0
2018-11-10T00:59:52.980Z,0
2018-11-10T01:00:15.482Z,0
2018-11-10T01:00:36.050Z,0
2018-11-10T01:00:55.630Z,0
2018-11-10T01:01:15.202Z,0
2018-11-10T01:01:34.922Z,0
2018-11-10T01:01:54.498Z,0
2018-11-10T01:02:14.072Z,0
2018-11-10T01:02:33.619Z,0
2018-11-10T01:02:53.249Z,0
2018-11-10T01:03:12.954Z,0
2018-11-10T01:03:32.858Z,0
2018-11-10T01:03:53.604Z,0
2018-11-10T01:04:13.384Z,0
2018-11-10T01:04:34.159Z,0
2018-11-10T01:04:56.288Z,0
2018-11-10T01:05:19.385Z,0
2018-11-10T01:05:39.588Z,0
2018-11-10T01:05:59.772Z,0
2018-11-10T01:06:19.692Z,0
2018-11-10T01:06:39.616Z,0
2018-11-10T01:06:59.411Z,0
2018-11-10T01:07:19.835Z,0
2018-11-10T01:07:39.911Z,0
2018-11-10T01:08:00.012Z,0
2018-11-10T01:08:20.078Z,0
2018-11-10T01:08:39.914Z,0
2018-11-10T01:09:02.759Z,0
2018-11-10T01:09:23.988Z,0
2018-11-10T01:09:43.896Z,0
2018-11-10T01:10:03.811Z,0
2018-11-10T01:13:11.437Z,0
2018-11-10T01:20:34.408Z,0
2018-11-10T01:20:54.159Z,0
2018-11-10T01:21:13.943Z,0
2018-11-10T01:21:33.603Z,0
2018-11-10T01:21:53.163Z,0
2018-11-10T01:22:12.869Z,0
2018-11-10T01:22:32.727Z,0
2018-11-10T01:22:52.774Z,0
2018-11-10T01:23:12.923Z,0
2018-11-10T01:23:32.554Z,0
2018-11-10T01:23:52.199Z,0
2018-11-10T01:24:12.026Z,0
2018-11-10T01:24:35.116Z,0
2018-11-10T01:24:57.870Z,0
2018-11-10T01:25:20.789Z,0
2018-11-10T01:25:40.335Z,0
2018-11-10T01:25:59.954Z,0
2018-11-10T01:26:19.563Z,0
2018-11-10T01:26:39.120Z,0
2018-11-10T01:26:58.751Z,0
2018-11-10T01:27:18.367Z,0
2018-11-10T01:27:38.045Z,0
2018-11-10T01:27:57.901Z,0
2018-11-10T01:28:17.370Z,0
2018-11-10T01:28:37.199Z,0
2018-11-10T01:28:57.056Z,0
2018-11-10T01:29:16.923Z,0
2018-11-10T01:29:36.498Z,0
2018-11-10T01:29:56.341Z,0
2018-11-10T01:30:16.344Z,0
2018-11-10T01:30:36.164Z,0
2018-11-10T01:30:56.662Z,0
2018-11-10T01:31:16.199Z,0
2018-11-10T01:31:37.050Z,0
2018-11-10T01:31:56.680Z,0
2018-11-10T01:32:17.239Z,0
2018-11-10T01:32:37.262Z,0
2018-11-10T01:32:57.098Z,0
2018-11-10T01:33:17.039Z,0
2018-11-10T01:33:36.630Z,0
2018-11-10T01:33:56.243Z,0
2018-11-10T01:34:16.144Z,0
2018-11-10T01:34:36.037Z,0
2018-11-10T01:34:55.769Z,0
2018-11-10T01:35:15.846Z,0
2018-11-10T01:35:35.801Z,0
2018-11-10T01:35:56.085Z,0
2018-11-10T01:36:15.973Z,0
2018-11-10T01:36:35.930Z,0
2018-11-10T01:36:56.256Z,0
2018-11-10T01:37:16.130Z,0
2018-11-10T01:37:36.319Z,0
2018-11-10T09:18:47.993Z,253.125
2018-11-10T09:19:07.500Z,258.75
2018-11-10T09:19:27.027Z,270
2018-11-10T09:19:46.552Z,264.375
2018-11-10T09:20:06.104Z,275.625
2018-11-10T09:20:25.697Z,281.25
2018-11-10T09:20:45.239Z,286.875
2018-11-10T09:21:04.825Z,292.5
2018-11-10T09:21:24.443Z,298.125
2018-11-10T09:21:44.023Z,303.75
2018-11-10T09:22:03.608Z,298.125
2018-11-10T09:22:23.242Z,303.75
2018-11-10T09:22:42.868Z,303.75
2018-11-10T09:23:03.551Z,298.125
2018-11-10T09:23:23.119Z,303.75
2018-11-10T09:23:42.700Z,298.125
2018-11-10T09:24:02.456Z,292.5
2018-11-10T09:24:22.025Z,292.5
2018-11-10T09:24:41.563Z,292.5
2018-11-10T09:25:01.133Z,286.875
2018-11-10T09:25:20.819Z,286.875
2018-11-10T09:25:40.382Z,275.625
2018-11-10T09:26:00.078Z,270
2018-11-10T09:26:19.577Z,264.375
2018-11-10T09:26:40.098Z,258.75
2018-11-10T09:27:00.262Z,253.125
2018-11-10T09:27:19.832Z,258.75
2018-11-10T09:27:39.545Z,253.125
2018-11-10T09:27:59.130Z,247.5
2018-11-10T09:28:18.692Z,253.125
2018-11-10T09:28:39.216Z,247.5
2018-11-10T09:28:58.842Z,253.125
2018-11-10T09:29:18.400Z,247.5
2018-11-10T09:29:37.942Z,247.5
2018-11-10T09:29:57.469Z,247.5
2018-11-10T09:30:18.116Z,258.75
2018-11-10T09:30:37.667Z,258.75
2018-11-10T09:30:57.322Z,258.75
2018-11-10T09:31:16.881Z,253.125
2018-11-10T09:31:36.447Z,258.75
2018-11-10T09:31:56.022Z,258.75
2018-11-10T09:32:15.555Z,275.625
2018-11-10T09:32:35.101Z,270
2018-11-10T09:32:54.624Z,270
2018-11-10T09:33:14.213Z,264.375
2018-11-10T09:33:33.865Z,258.75
2018-11-10T09:33:53.416Z,270
2018-11-10T09:34:13.037Z,281.25
2018-11-10T09:34:32.696Z,270
2018-11-10T09:34:52.267Z,264.375
2018-11-10T09:35:11.849Z,270
2018-11-10T09:35:31.535Z,281.25
2018-11-10T09:35:51.070Z,275.625
2018-11-10T09:36:10.642Z,275.625
2018-11-10T09:36:30.325Z,275.625
2018-11-10T09:36:49.733Z,275.625
2018-11-10T09:37:09.302Z,270
2018-11-10T09:37:28.971Z,270
2018-11-10T09:37:48.667Z,286.875
2018-11-10T09:38:08.241Z,286.875
2018-11-10T09:38:27.768Z,303.75
2018-11-10T09:38:47.300Z,303.75
2018-11-10T09:39:06.943Z,286.875
2018-11-10T09:39:26.415Z,292.5
2018-11-10T09:39:45.961Z,275.625
2018-11-10T09:40:05.552Z,264.375
2018-11-10T09:40:25.059Z,281.25
2018-11-10T09:40:44.664Z,275.625
2018-11-10T09:41:04.241Z,292.5
2018-11-10T09:41:23.766Z,292.5
2018-11-10T09:41:43.384Z,286.875
2018-11-10T09:42:04.151Z,286.875
2018-11-10T09:42:24.864Z,286.875
2018-11-10T09:42:44.396Z,298.125
2018-11-10T09:43:03.701Z,281.25
2018-11-10T09:43:23.247Z,275.625
2018-11-10T09:43:42.801Z,281.25
2018-11-10T09:44:02.312Z,225
2018-11-10T09:44:22.919Z,230.625
2018-11-10T09:44:45.662Z,275.625
2018-11-10T09:45:05.340Z,241.875
2018-11-10T09:45:25.089Z,208.125
2018-11-10T09:45:45.855Z,292.5
2018-11-10T09:46:05.688Z,303.75
2018-11-10T09:46:25.628Z,309.375
2018-11-10T09:46:45.234Z,309.375
2018-11-10T09:47:04.843Z,315
2018-11-10T09:47:24.395Z,309.375
2018-11-10T09:47:43.927Z,303.75
2018-11-10T09:48:05.456Z,320.625
2018-11-10T09:48:25.965Z,326.25
2018-11-10T09:48:45.614Z,326.25
2018-11-10T09:49:07.000Z,320.625
2018-11-10T09:49:28.719Z,303.75
